sensor_id;sensor_type;location;lat;lon;timestamp;temperature;humidity
15359;DHT22;7779;49.596;11.070;2023-06-26T00:01:17;19.40;56.90
15359;DHT22;7779;49.596;11.070;2023-06-26T00:03:46;20.40;57.90
15359;DHT22;7779;49.596;11.070;2023-06-26T00:06:13;19.30;57.10
15359;DHT22;7779;49.596;11.070;2023-06-26T00:08:39;19.20;57.20
15359;DHT22;7779;49.596;11.070;2023-06-26T00:11:05;19.20;57.30
15359;DHT22;7779;49.596;11.070;2023-06-26T00:13:31;19.10;57.40
15359;DHT22;7779;49.596;11.070;2023-06-26T00:15:56;19.10;57.60
15359;DHT22;7779;49.596;11.070;2023-06-26T00:18:22;19.00;57.70
15359;DHT22;7779;49.596;11.070;2023-06-26T00:20:49;19.00;57.80
15359;DHT22;7779;49.596;11.070;2023-06-26T00:23:16;18.90;57.90
15359;DHT22;7779;49.596;11.070;2023-06-26T00:25:43;18.90;58.10
15359;DHT22;7779;49.596;11.070;2023-06-26T00:28:09;18.90;58.20
15359;DHT22;7779;49.596;11.070;2023-06-26T00:30:37;18.80;58.30
15359;DHT22;7779;49.596;11.070;2023-06-26T00:33:03;18.80;58.30
15359;DHT22;7779;49.596;11.070;2023-06-26T00:35:30;18.70;58.40
15359;DHT22;7779;49.596;11.070;2023-06-26T00:37:56;18.70;58.50
15359;DHT22;7779;49.596;11.070;2023-06-26T00:40:22;18.70;58.50
15359;DHT22;7779;49.596;11.070;2023-06-26T00:42:48;18.70;58.70
15359;DHT22;7779;49.596;11.070;2023-06-26T00:45:13;18.60;58.70
15359;DHT22;7779;49.596;11.070;2023-06-26T00:47:39;18.60;58.80
15359;DHT22;7779;49.596;11.070;2023-06-26T00:50:06;18.60;58.90
15359;DHT22;7779;49.596;11.070;2023-06-26T00:52:32;18.50;58.90
15359;DHT22;7779;49.596;11.070;2023-06-26T00:54:59;18.50;58.90
15359;DHT22;7779;49.596;11.070;2023-06-26T00:57:24;18.50;59.00
15359;DHT22;7779;49.596;11.070;2023-06-26T00:59:53;18.40;59.00
15359;DHT22;7779;49.596;11.070;2023-06-26T01:02:20;18.40;59.10
15359;DHT22;7779;49.596;11.070;2023-06-26T01:04:48;18.40;59.10
15359;DHT22;7779;49.596;11.070;2023-06-26T01:07:18;18.30;59.10
15359;DHT22;7779;49.596;11.070;2023-06-26T01:09:48;18.30;59.20
15359;DHT22;7779;49.596;11.070;2023-06-26T01:12:15;18.30;59.50
15359;DHT22;7779;49.596;11.070;2023-06-26T01:14:41;18.30;59.30
15359;DHT22;7779;49.596;11.070;2023-06-26T01:17:07;18.30;59.30
15359;DHT22;7779;49.596;11.070;2023-06-26T01:19:39;18.20;59.30
15359;DHT22;7779;49.596;11.070;2023-06-26T01:25:33;18.20;60.50
15359;DHT22;7779;49.596;11.070;2023-06-26T01:28:07;18.10;60.80
15359;DHT22;7779;49.596;11.070;2023-06-26T01:30:35;18.10;59.40
15359;DHT22;7779;49.596;11.070;2023-06-26T01:33:04;18.10;59.50
15359;DHT22;7779;49.596;11.070;2023-06-26T01:35:30;18.00;59.50
15359;DHT22;7779;49.596;11.070;2023-06-26T01:38:14;18.00;59.60
15359;DHT22;7779;49.596;11.070;2023-06-26T01:40:41;18.00;61.20
15359;DHT22;7779;49.596;11.070;2023-06-26T01:43:21;17.90;59.60
15359;DHT22;7779;49.596;11.070;2023-06-26T01:46:14;17.90;60.10
15359;DHT22;7779;49.596;11.070;2023-06-26T01:48:52;17.90;60.30
15359;DHT22;7779;49.596;11.070;2023-06-26T01:51:30;17.80;60.10
15359;DHT22;7779;49.596;11.070;2023-06-26T01:54:11;17.70;60.10
15359;DHT22;7779;49.596;11.070;2023-06-26T01:56:45;17.70;59.90
15359;DHT22;7779;49.596;11.070;2023-06-26T01:59:14;17.60;59.80
15359;DHT22;7779;49.596;11.070;2023-06-26T02:01:42;17.50;59.80
15359;DHT22;7779;49.596;11.070;2023-06-26T02:04:08;17.50;60.00
15359;DHT22;7779;49.596;11.070;2023-06-26T02:06:33;17.40;60.00
15359;DHT22;7779;49.596;11.070;2023-06-26T02:08:59;17.40;60.20
15359;DHT22;7779;49.596;11.070;2023-06-26T02:11:25;17.40;60.40
15359;DHT22;7779;49.596;11.070;2023-06-26T02:13:51;17.30;60.50
15359;DHT22;7779;49.596;11.070;2023-06-26T02:16:17;17.30;60.60
15359;DHT22;7779;49.596;11.070;2023-06-26T02:18:43;17.20;60.70
15359;DHT22;7779;49.596;11.070;2023-06-26T02:21:09;17.20;60.90
15359;DHT22;7779;49.596;11.070;2023-06-26T02:23:35;17.20;61.00
15359;DHT22;7779;49.596;11.070;2023-06-26T02:26:00;17.10;61.00
15359;DHT22;7779;49.596;11.070;2023-06-26T02:28:26;17.10;61.00
15359;DHT22;7779;49.596;11.070;2023-06-26T02:30:52;17.10;61.20
15359;DHT22;7779;49.596;11.070;2023-06-26T02:33:18;17.10;61.20
15359;DHT22;7779;49.596;11.070;2023-06-26T02:35:47;17.00;61.20
15359;DHT22;7779;49.596;11.070;2023-06-26T02:38:13;17.00;61.20
15359;DHT22;7779;49.596;11.070;2023-06-26T02:40:39;16.90;61.20
15359;DHT22;7779;49.596;11.070;2023-06-26T02:43:06;16.90;61.30
15359;DHT22;7779;49.596;11.070;2023-06-26T02:45:32;16.90;61.40
15359;DHT22;7779;49.596;11.070;2023-06-26T02:47:57;16.80;61.40
15359;DHT22;7779;49.596;11.070;2023-06-26T02:50:24;16.80;61.40
15359;DHT22;7779;49.596;11.070;2023-06-26T02:53:08;16.80;61.60
15359;DHT22;7779;49.596;11.070;2023-06-26T02:55:35;16.70;61.60
15359;DHT22;7779;49.596;11.070;2023-06-26T02:58:01;16.70;61.80
15359;DHT22;7779;49.596;11.070;2023-06-26T03:00:28;16.60;61.80
15359;DHT22;7779;49.596;11.070;2023-06-26T03:02:55;16.60;62.00
15359;DHT22;7779;49.596;11.070;2023-06-26T03:05:22;16.50;62.00
15359;DHT22;7779;49.596;11.070;2023-06-26T03:07:49;16.50;62.10
15359;DHT22;7779;49.596;11.070;2023-06-26T03:10:15;16.50;62.20
15359;DHT22;7779;49.596;11.070;2023-06-26T03:12:42;16.50;62.40
15359;DHT22;7779;49.596;11.070;2023-06-26T03:15:09;16.40;62.50
15359;DHT22;7779;49.596;11.070;2023-06-26T03:17:37;16.40;62.50
15359;DHT22;7779;49.596;11.070;2023-06-26T03:20:07;16.40;62.60
15359;DHT22;7779;49.596;11.070;2023-06-26T03:22:54;16.40;62.70
15359;DHT22;7779;49.596;11.070;2023-06-26T03:25:21;16.40;62.80
15359;DHT22;7779;49.596;11.070;2023-06-26T03:27:48;16.30;62.80
15359;DHT22;7779;49.596;11.070;2023-06-26T03:30:15;16.30;62.90
15359;DHT22;7779;49.596;11.070;2023-06-26T03:32:43;16.30;63.10
15359;DHT22;7779;49.596;11.070;2023-06-26T03:35:08;16.30;63.20
15359;DHT22;7779;49.596;11.070;2023-06-26T03:37:35;16.30;63.40
15359;DHT22;7779;49.596;11.070;2023-06-26T03:40:00;16.30;63.30
15359;DHT22;7779;49.596;11.070;2023-06-26T03:42:26;16.30;63.30
15359;DHT22;7779;49.596;11.070;2023-06-26T03:44:53;16.30;63.30
15359;DHT22;7779;49.596;11.070;2023-06-26T03:47:19;16.30;63.40
15359;DHT22;7779;49.596;11.070;2023-06-26T03:49:44;16.30;63.60
15359;DHT22;7779;49.596;11.070;2023-06-26T03:52:10;16.40;64.20
15359;DHT22;7779;49.596;11.070;2023-06-26T03:54:38;16.50;64.90
15359;DHT22;7779;49.596;11.070;2023-06-26T03:57:04;16.60;65.30
15359;DHT22;7779;49.596;11.070;2023-06-26T03:59:30;16.70;65.50
15359;DHT22;7779;49.596;11.070;2023-06-26T04:01:56;16.90;65.30
15359;DHT22;7779;49.596;11.070;2023-06-26T04:04:22;17.00;65.00
15359;DHT22;7779;49.596;11.070;2023-06-26T04:06:47;17.10;64.70
15359;DHT22;7779;49.596;11.070;2023-06-26T04:09:13;17.20;64.60
15359;DHT22;7779;49.596;11.070;2023-06-26T04:11:39;17.30;64.40
15359;DHT22;7779;49.596;11.070;2023-06-26T04:14:04;17.30;64.10
15359;DHT22;7779;49.596;11.070;2023-06-26T04:16:30;17.30;63.90
15359;DHT22;7779;49.596;11.070;2023-06-26T04:18:56;17.40;63.80
15359;DHT22;7779;49.596;11.070;2023-06-26T04:21:23;17.50;63.80
15359;DHT22;7779;49.596;11.070;2023-06-26T04:23:50;17.50;63.70
15359;DHT22;7779;49.596;11.070;2023-06-26T04:26:16;17.50;63.70
15359;DHT22;7779;49.596;11.070;2023-06-26T04:28:42;17.60;63.80
15359;DHT22;7779;49.596;11.070;2023-06-26T04:31:08;17.60;63.80
15359;DHT22;7779;49.596;11.070;2023-06-26T04:33:35;17.70;64.00
15359;DHT22;7779;49.596;11.070;2023-06-26T04:36:05;17.80;64.40
15359;DHT22;7779;49.596;11.070;2023-06-26T04:38:32;17.90;65.00
15359;DHT22;7779;49.596;11.070;2023-06-26T04:40:59;18.10;65.70
15359;DHT22;7779;49.596;11.070;2023-06-26T04:43:25;18.30;65.80
15359;DHT22;7779;49.596;11.070;2023-06-26T04:45:51;18.60;66.60
15359;DHT22;7779;49.596;11.070;2023-06-26T04:48:16;18.90;66.40
15359;DHT22;7779;49.596;11.070;2023-06-26T04:50:42;19.10;65.90
15359;DHT22;7779;49.596;11.070;2023-06-26T04:53:08;19.40;65.40
15359;DHT22;7779;49.596;11.070;2023-06-26T04:55:35;19.60;65.00
15359;DHT22;7779;49.596;11.070;2023-06-26T04:58:01;19.90;64.60
15359;DHT22;7779;49.596;11.070;2023-06-26T05:00:26;20.10;64.30
15359;DHT22;7779;49.596;11.070;2023-06-26T05:02:52;20.10;62.60
15359;DHT22;7779;49.596;11.070;2023-06-26T05:05:26;20.50;63.60
15359;DHT22;7779;49.596;11.070;2023-06-26T05:07:54;20.70;63.40
15359;DHT22;7779;49.596;11.070;2023-06-26T05:10:20;21.00;63.20
15359;DHT22;7779;49.596;11.070;2023-06-26T05:12:46;21.20;62.80
15359;DHT22;7779;49.596;11.070;2023-06-26T05:15:12;21.40;62.30
15359;DHT22;7779;49.596;11.070;2023-06-26T05:17:37;21.50;61.80
15359;DHT22;7779;49.596;11.070;2023-06-26T05:20:03;21.70;61.40
15359;DHT22;7779;49.596;11.070;2023-06-26T05:22:32;21.80;61.10
15359;DHT22;7779;49.596;11.070;2023-06-26T05:24:59;22.00;61.10
15359;DHT22;7779;49.596;11.070;2023-06-26T05:27:27;22.20;61.20
15359;DHT22;7779;49.596;11.070;2023-06-26T05:29:53;22.40;61.20
15359;DHT22;7779;49.596;11.070;2023-06-26T05:32:19;22.60;61.10
15359;DHT22;7779;49.596;11.070;2023-06-26T05:34:47;22.80;60.90
15359;DHT22;7779;49.596;11.070;2023-06-26T05:37:21;23.00;60.50
15359;DHT22;7779;49.596;11.070;2023-06-26T05:39:47;23.20;59.80
15359;DHT22;7779;49.596;11.070;2023-06-26T05:42:14;23.40;59.70
15359;DHT22;7779;49.596;11.070;2023-06-26T05:44:40;23.60;59.30
15359;DHT22;7779;49.596;11.070;2023-06-26T05:47:06;23.70;58.80
15359;DHT22;7779;49.596;11.070;2023-06-26T05:49:33;23.90;58.30
15359;DHT22;7779;49.596;11.070;2023-06-26T05:51:59;24.00;58.00
15359;DHT22;7779;49.596;11.070;2023-06-26T05:54:25;24.20;57.80
15359;DHT22;7779;49.596;11.070;2023-06-26T05:56:56;24.30;57.50
15359;DHT22;7779;49.596;11.070;2023-06-26T05:59:25;24.40;57.00
15359;DHT22;7779;49.596;11.070;2023-06-26T06:01:52;24.50;57.10
15359;DHT22;7779;49.596;11.070;2023-06-26T06:04:18;24.70;57.00
15359;DHT22;7779;49.596;11.070;2023-06-26T06:06:44;24.80;56.80
15359;DHT22;7779;49.596;11.070;2023-06-26T06:09:09;24.90;56.60
15359;DHT22;7779;49.596;11.070;2023-06-26T06:11:35;25.10;56.50
15359;DHT22;7779;49.596;11.070;2023-06-26T06:14:01;25.30;56.90
15359;DHT22;7779;49.596;11.070;2023-06-26T06:16:27;25.50;56.10
15359;DHT22;7779;49.596;11.070;2023-06-26T06:18:56;25.60;55.70
15359;DHT22;7779;49.596;11.070;2023-06-26T06:21:21;25.80;55.40
15359;DHT22;7779;49.596;11.070;2023-06-26T06:23:47;25.90;55.10
15359;DHT22;7779;49.596;11.070;2023-06-26T06:26:13;26.10;54.80
15359;DHT22;7779;49.596;11.070;2023-06-26T06:28:39;26.30;54.40
15359;DHT22;7779;49.596;11.070;2023-06-26T06:31:05;26.40;54.00
15359;DHT22;7779;49.596;11.070;2023-06-26T06:33:30;26.60;53.80
15359;DHT22;7779;49.596;11.070;2023-06-26T06:35:56;26.80;53.50
15359;DHT22;7779;49.596;11.070;2023-06-26T06:38:22;27.00;53.10
15359;DHT22;7779;49.596;11.070;2023-06-26T06:40:48;27.20;52.70
15359;DHT22;7779;49.596;11.070;2023-06-26T06:43:14;27.40;50.70
15359;DHT22;7779;49.596;11.070;2023-06-26T06:45:40;27.60;52.10
15359;DHT22;7779;49.596;11.070;2023-06-26T06:48:06;27.80;51.80
15359;DHT22;7779;49.596;11.070;2023-06-26T06:50:32;28.00;51.50
15359;DHT22;7779;49.596;11.070;2023-06-26T06:52:58;28.10;51.10
15359;DHT22;7779;49.596;11.070;2023-06-26T06:55:24;28.30;50.90
15359;DHT22;7779;49.596;11.070;2023-06-26T06:57:51;28.50;50.70
15359;DHT22;7779;49.596;11.070;2023-06-26T07:00:17;28.60;50.20
15359;DHT22;7779;49.596;11.070;2023-06-26T07:02:44;28.80;49.60
15359;DHT22;7779;49.596;11.070;2023-06-26T07:05:11;28.90;49.10
15359;DHT22;7779;49.596;11.070;2023-06-26T07:07:38;29.10;48.80
15359;DHT22;7779;49.596;11.070;2023-06-26T07:10:06;29.20;48.30
15359;DHT22;7779;49.596;11.070;2023-06-26T07:12:37;29.30;48.00
15359;DHT22;7779;49.596;11.070;2023-06-26T07:15:04;29.50;47.70
15359;DHT22;7779;49.596;11.070;2023-06-26T07:17:31;29.60;47.50
15359;DHT22;7779;49.596;11.070;2023-06-26T07:19:59;29.60;47.30
15359;DHT22;7779;49.596;11.070;2023-06-26T07:22:25;29.70;47.00
15359;DHT22;7779;49.596;11.070;2023-06-26T07:24:51;29.90;46.80
15359;DHT22;7779;49.596;11.070;2023-06-26T07:27:17;29.90;46.50
15359;DHT22;7779;49.596;11.070;2023-06-26T07:29:46;30.00;46.20
15359;DHT22;7779;49.596;11.070;2023-06-26T07:32:12;30.10;46.10
15359;DHT22;7779;49.596;11.070;2023-06-26T07:34:37;30.20;45.80
15359;DHT22;7779;49.596;11.070;2023-06-26T07:37:04;30.30;45.50
15359;DHT22;7779;49.596;11.070;2023-06-26T07:39:30;30.30;45.20
15359;DHT22;7779;49.596;11.070;2023-06-26T07:41:56;30.40;45.00
15359;DHT22;7779;49.596;11.070;2023-06-26T07:44:23;30.40;44.80
15359;DHT22;7779;49.596;11.070;2023-06-26T07:46:49;30.50;44.60
15359;DHT22;7779;49.596;11.070;2023-06-26T07:49:15;30.50;44.40
15359;DHT22;7779;49.596;11.070;2023-06-26T07:51:41;30.50;44.10
15359;DHT22;7779;49.596;11.070;2023-06-26T07:54:06;30.60;43.80
15359;DHT22;7779;49.596;11.070;2023-06-26T07:56:51;30.70;43.80
15359;DHT22;7779;49.596;11.070;2023-06-26T07:59:21;30.70;43.60
15359;DHT22;7779;49.596;11.070;2023-06-26T08:01:49;30.80;43.80
15359;DHT22;7779;49.596;11.070;2023-06-26T08:04:18;30.90;43.50
15359;DHT22;7779;49.596;11.070;2023-06-26T08:06:47;30.90;43.10
15359;DHT22;7779;49.596;11.070;2023-06-26T08:09:13;30.90;42.90
15359;DHT22;7779;49.596;11.070;2023-06-26T08:11:39;31.00;42.10
15359;DHT22;7779;49.596;11.070;2023-06-26T08:14:05;31.10;42.60
15359;DHT22;7779;49.596;11.070;2023-06-26T08:16:31;31.10;42.40
15359;DHT22;7779;49.596;11.070;2023-06-26T08:18:56;31.20;42.20
15359;DHT22;7779;49.596;11.070;2023-06-26T08:21:22;31.30;42.20
15359;DHT22;7779;49.596;11.070;2023-06-26T08:23:48;31.30;42.10
15359;DHT22;7779;49.596;11.070;2023-06-26T08:26:14;31.40;41.90
15359;DHT22;7779;49.596;11.070;2023-06-26T08:28:39;31.50;41.60
15359;DHT22;7779;49.596;11.070;2023-06-26T08:31:05;31.60;41.50
15359;DHT22;7779;49.596;11.070;2023-06-26T08:33:31;31.60;41.40
15359;DHT22;7779;49.596;11.070;2023-06-26T08:35:56;31.70;41.30
15359;DHT22;7779;49.596;11.070;2023-06-26T08:38:22;31.80;41.10
15359;DHT22;7779;49.596;11.070;2023-06-26T08:40:48;31.80;40.80
15359;DHT22;7779;49.596;11.070;2023-06-26T08:43:14;31.90;40.60
15359;DHT22;7779;49.596;11.070;2023-06-26T08:45:40;31.90;40.40
15359;DHT22;7779;49.596;11.070;2023-06-26T08:48:09;32.00;40.30
15359;DHT22;7779;49.596;11.070;2023-06-26T08:50:36;32.00;40.00
15359;DHT22;7779;49.596;11.070;2023-06-26T08:53:29;32.10;40.20
15359;DHT22;7779;49.596;11.070;2023-06-26T08:56:04;32.10;38.90
15359;DHT22;7779;49.596;11.070;2023-06-26T08:58:32;32.10;40.00
15359;DHT22;7779;49.596;11.070;2023-06-26T09:00:59;32.20;40.60
15359;DHT22;7779;49.596;11.070;2023-06-26T09:03:26;32.30;39.90
15359;DHT22;7779;49.596;11.070;2023-06-26T09:05:52;32.30;39.80
15359;DHT22;7779;49.596;11.070;2023-06-26T09:08:18;32.30;39.50
15359;DHT22;7779;49.596;11.070;2023-06-26T09:10:44;32.40;39.50
15359;DHT22;7779;49.596;11.070;2023-06-26T09:13:10;32.40;39.30
15359;DHT22;7779;49.596;11.070;2023-06-26T09:15:43;32.40;39.10
15359;DHT22;7779;49.596;11.070;2023-06-26T09:18:09;32.60;38.50
15359;DHT22;7779;49.596;11.070;2023-06-26T09:20:35;32.60;38.90
15359;DHT22;7779;49.596;11.070;2023-06-26T09:23:00;32.60;38.70
15359;DHT22;7779;49.596;11.070;2023-06-26T09:25:28;32.60;38.60
15359;DHT22;7779;49.596;11.070;2023-06-26T09:27:55;32.70;38.50
15359;DHT22;7779;49.596;11.070;2023-06-26T09:30:21;32.70;38.40
15359;DHT22;7779;49.596;11.070;2023-06-26T09:32:48;32.80;38.40
15359;DHT22;7779;49.596;11.070;2023-06-26T09:35:16;32.80;38.90
15359;DHT22;7779;49.596;11.070;2023-06-26T09:37:43;32.80;38.20
15359;DHT22;7779;49.596;11.070;2023-06-26T09:40:09;32.90;38.20
15359;DHT22;7779;49.596;11.070;2023-06-26T09:42:35;33.00;38.10
15359;DHT22;7779;49.596;11.070;2023-06-26T09:45:02;33.00;37.90
15359;DHT22;7779;49.596;11.070;2023-06-26T09:47:30;33.00;37.90
15359;DHT22;7779;49.596;11.070;2023-06-26T09:49:57;33.10;37.70
15359;DHT22;7779;49.596;11.070;2023-06-26T09:52:26;33.20;38.30
15359;DHT22;7779;49.596;11.070;2023-06-26T09:55:08;33.20;37.20
15359;DHT22;7779;49.596;11.070;2023-06-26T09:57:35;33.30;36.10
15359;DHT22;7779;49.596;11.070;2023-06-26T10:00:02;33.30;37.00
15359;DHT22;7779;49.596;11.070;2023-06-26T10:02:39;33.40;36.90
15359;DHT22;7779;49.596;11.070;2023-06-26T10:05:05;33.40;36.70
15359;DHT22;7779;49.596;11.070;2023-06-26T10:07:31;33.40;36.50
15359;DHT22;7779;49.596;11.070;2023-06-26T10:09:57;33.40;36.50
15359;DHT22;7779;49.596;11.070;2023-06-26T10:12:30;33.40;36.30
15359;DHT22;7779;49.596;11.070;2023-06-26T10:14:57;33.50;35.70
15359;DHT22;7779;49.596;11.070;2023-06-26T10:17:28;33.50;36.00
15359;DHT22;7779;49.596;11.070;2023-06-26T10:20:02;33.50;35.90
15359;DHT22;7779;49.596;11.070;2023-06-26T10:22:31;33.60;35.10
15359;DHT22;7779;49.596;11.070;2023-06-26T10:25:04;33.60;36.00
15359;DHT22;7779;49.596;11.070;2023-06-26T10:27:45;33.60;35.60
15359;DHT22;7779;49.596;11.070;2023-06-26T10:30:18;33.70;35.40
15359;DHT22;7779;49.596;11.070;2023-06-26T10:32:47;33.70;35.20
15359;DHT22;7779;49.596;11.070;2023-06-26T10:35:14;33.70;35.30
15359;DHT22;7779;49.596;11.070;2023-06-26T10:37:44;33.80;35.30
15359;DHT22;7779;49.596;11.070;2023-06-26T10:40:13;33.80;34.90
15359;DHT22;7779;49.596;11.070;2023-06-26T10:42:46;33.80;35.00
15359;DHT22;7779;49.596;11.070;2023-06-26T10:45:16;33.90;35.00
15359;DHT22;7779;49.596;11.070;2023-06-26T10:47:48;33.90;34.60
15359;DHT22;7779;49.596;11.070;2023-06-26T10:50:27;33.90;34.10
15359;DHT22;7779;49.596;11.070;2023-06-26T10:53:14;34.00;32.90
15359;DHT22;7779;49.596;11.070;2023-06-26T10:56:01;34.00;33.10
15359;DHT22;7779;49.596;11.070;2023-06-26T10:58:31;34.00;33.60
15359;DHT22;7779;49.596;11.070;2023-06-26T11:03:37;34.10;33.10
15359;DHT22;7779;49.596;11.070;2023-06-26T11:06:10;34.10;33.50
15359;DHT22;7779;49.596;11.070;2023-06-26T11:08:51;34.20;33.00
15359;DHT22;7779;49.596;11.070;2023-06-26T11:11:22;34.20;33.00
15359;DHT22;7779;49.596;11.070;2023-06-26T11:14:17;34.30;33.10
15359;DHT22;7779;49.596;11.070;2023-06-26T11:16:43;34.30;32.90
15359;DHT22;7779;49.596;11.070;2023-06-26T11:19:13;34.30;32.90
15359;DHT22;7779;49.596;11.070;2023-06-26T11:21:40;34.20;32.30
15359;DHT22;7779;49.596;11.070;2023-06-26T11:24:06;34.20;32.50
15359;DHT22;7779;49.596;11.070;2023-06-26T11:29:09;34.10;31.60
15359;DHT22;7779;49.596;11.070;2023-06-26T11:31:38;34.10;32.10
15359;DHT22;7779;49.596;11.070;2023-06-26T11:34:07;34.00;31.90
15359;DHT22;7779;49.596;11.070;2023-06-26T11:36:36;34.00;31.90
15359;DHT22;7779;49.596;11.070;2023-06-26T11:39:07;34.00;31.90
15359;DHT22;7779;49.596;11.070;2023-06-26T11:41:35;33.90;31.90
15359;DHT22;7779;49.596;11.070;2023-06-26T11:44:08;33.90;32.00
15359;DHT22;7779;49.596;11.070;2023-06-26T11:46:36;33.90;31.70
15359;DHT22;7779;49.596;11.070;2023-06-26T11:49:04;33.90;32.00
15359;DHT22;7779;49.596;11.070;2023-06-26T11:51:30;33.90;31.60
15359;DHT22;7779;49.596;11.070;2023-06-26T11:53:56;33.90;31.90
15359;DHT22;7779;49.596;11.070;2023-06-26T11:56:22;33.90;31.70
15359;DHT22;7779;49.596;11.070;2023-06-26T11:59:09;33.90;31.60
15359;DHT22;7779;49.596;11.070;2023-06-26T12:04:11;33.90;31.60
15359;DHT22;7779;49.596;11.070;2023-06-26T12:06:40;33.90;31.60
15359;DHT22;7779;49.596;11.070;2023-06-26T12:09:10;33.90;31.60
15359;DHT22;7779;49.596;11.070;2023-06-26T12:11:38;33.90;31.50
15359;DHT22;7779;49.596;11.070;2023-06-26T12:14:07;33.90;31.40
15359;DHT22;7779;49.596;11.070;2023-06-26T12:16:34;33.90;31.20
15359;DHT22;7779;49.596;11.070;2023-06-26T12:19:04;33.90;31.10
15359;DHT22;7779;49.596;11.070;2023-06-26T12:21:44;33.90;31.10
15359;DHT22;7779;49.596;11.070;2023-06-26T12:24:16;33.90;30.50
15359;DHT22;7779;49.596;11.070;2023-06-26T12:26:54;33.90;30.80
15359;DHT22;7779;49.596;11.070;2023-06-26T12:29:29;34.00;30.60
15359;DHT22;7779;49.596;11.070;2023-06-26T12:31:58;34.00;30.40
15359;DHT22;7779;49.596;11.070;2023-06-26T12:37:11;34.00;30.70
15359;DHT22;7779;49.596;11.070;2023-06-26T12:39:57;34.10;31.40
15359;DHT22;7779;49.596;11.070;2023-06-26T12:42:33;34.10;30.40
15359;DHT22;7779;49.596;11.070;2023-06-26T12:44:59;34.10;30.40
15359;DHT22;7779;49.596;11.070;2023-06-26T12:47:28;34.20;30.80
15359;DHT22;7779;49.596;11.070;2023-06-26T12:49:56;34.20;30.50
15359;DHT22;7779;49.596;11.070;2023-06-26T12:52:23;34.30;30.90
15359;DHT22;7779;49.596;11.070;2023-06-26T12:54:53;34.30;30.80
15359;DHT22;7779;49.596;11.070;2023-06-26T12:57:21;34.30;30.60
15359;DHT22;7779;49.596;11.070;2023-06-26T12:59:47;34.30;30.70
15359;DHT22;7779;49.596;11.070;2023-06-26T13:02:13;34.40;30.80
15359;DHT22;7779;49.596;11.070;2023-06-26T13:04:39;34.50;30.80
15359;DHT22;7779;49.596;11.070;2023-06-26T13:07:06;34.50;30.70
15359;DHT22;7779;49.596;11.070;2023-06-26T13:09:33;34.60;30.70
15359;DHT22;7779;49.596;11.070;2023-06-26T13:12:00;34.60;30.50
15359;DHT22;7779;49.596;11.070;2023-06-26T13:14:25;34.60;30.50
15359;DHT22;7779;49.596;11.070;2023-06-26T13:16:51;34.60;30.40
15359;DHT22;7779;49.596;11.070;2023-06-26T13:19:17;34.60;30.30
15359;DHT22;7779;49.596;11.070;2023-06-26T13:21:43;34.60;30.30
15359;DHT22;7779;49.596;11.070;2023-06-26T13:24:09;34.60;30.40
15359;DHT22;7779;49.596;11.070;2023-06-26T13:26:35;34.60;30.40
15359;DHT22;7779;49.596;11.070;2023-06-26T13:29:01;34.60;30.50
15359;DHT22;7779;49.596;11.070;2023-06-26T13:31:28;34.60;30.60
15359;DHT22;7779;49.596;11.070;2023-06-26T13:33:53;34.70;30.90
15359;DHT22;7779;49.596;11.070;2023-06-26T13:36:22;34.60;30.90
15359;DHT22;7779;49.596;11.070;2023-06-26T13:38:48;34.60;30.90
15359;DHT22;7779;49.596;11.070;2023-06-26T13:41:23;34.60;31.10
15359;DHT22;7779;49.596;11.070;2023-06-26T13:43:50;34.70;31.30
15359;DHT22;7779;49.596;11.070;2023-06-26T13:46:16;34.70;31.40
15359;DHT22;7779;49.596;11.070;2023-06-26T13:48:46;34.80;31.60
15359;DHT22;7779;49.596;11.070;2023-06-26T13:51:12;34.80;31.60
15359;DHT22;7779;49.596;11.070;2023-06-26T13:53:38;34.90;31.60
15359;DHT22;7779;49.596;11.070;2023-06-26T13:56:04;35.00;31.60
15359;DHT22;7779;49.596;11.070;2023-06-26T13:58:30;35.00;31.60
15359;DHT22;7779;49.596;11.070;2023-06-26T14:00:58;35.00;31.60
15359;DHT22;7779;49.596;11.070;2023-06-26T14:03:26;35.10;31.60
15359;DHT22;7779;49.596;11.070;2023-06-26T14:05:53;35.10;31.60
15359;DHT22;7779;49.596;11.070;2023-06-26T14:08:18;35.20;32.30
15359;DHT22;7779;49.596;11.070;2023-06-26T14:10:44;35.20;31.60
15359;DHT22;7779;49.596;11.070;2023-06-26T14:13:10;35.20;31.50
15359;DHT22;7779;49.596;11.070;2023-06-26T14:15:40;35.10;31.50
15359;DHT22;7779;49.596;11.070;2023-06-26T14:18:06;35.10;31.50
15359;DHT22;7779;49.596;11.070;2023-06-26T14:20:33;35.10;31.50
15359;DHT22;7779;49.596;11.070;2023-06-26T14:22:59;35.10;31.20
15359;DHT22;7779;49.596;11.070;2023-06-26T14:25:25;35.00;31.70
15359;DHT22;7779;49.596;11.070;2023-06-26T14:27:54;34.90;31.80
15359;DHT22;7779;49.596;11.070;2023-06-26T14:30:21;34.90;31.90
15359;DHT22;7779;49.596;11.070;2023-06-26T14:32:46;34.80;31.80
15359;DHT22;7779;49.596;11.070;2023-06-26T14:35:12;34.70;31.70
15359;DHT22;7779;49.596;11.070;2023-06-26T14:37:38;34.70;31.90
15359;DHT22;7779;49.596;11.070;2023-06-26T14:40:06;34.60;32.10
15359;DHT22;7779;49.596;11.070;2023-06-26T14:42:33;34.50;32.30
15359;DHT22;7779;49.596;11.070;2023-06-26T14:44:59;34.50;32.50
15359;DHT22;7779;49.596;11.070;2023-06-26T14:47:24;34.50;32.50
15359;DHT22;7779;49.596;11.070;2023-06-26T14:49:50;34.40;32.50
15359;DHT22;7779;49.596;11.070;2023-06-26T14:52:16;34.30;32.50
15359;DHT22;7779;49.596;11.070;2023-06-26T14:54:41;34.20;32.60
15359;DHT22;7779;49.596;11.070;2023-06-26T14:57:07;34.10;32.70
15359;DHT22;7779;49.596;11.070;2023-06-26T14:59:33;34.00;32.70
15359;DHT22;7779;49.596;11.070;2023-06-26T15:01:59;33.90;32.70
15359;DHT22;7779;49.596;11.070;2023-06-26T15:04:25;33.80;32.90
15359;DHT22;7779;49.596;11.070;2023-06-26T15:06:50;33.80;33.10
15359;DHT22;7779;49.596;11.070;2023-06-26T15:09:17;33.70;33.30
15359;DHT22;7779;49.596;11.070;2023-06-26T15:11:43;33.60;33.30
15359;DHT22;7779;49.596;11.070;2023-06-26T15:14:08;33.50;33.50
15359;DHT22;7779;49.596;11.070;2023-06-26T15:16:34;33.50;33.60
15359;DHT22;7779;49.596;11.070;2023-06-26T15:19:00;33.40;33.70
15359;DHT22;7779;49.596;11.070;2023-06-26T15:21:26;33.30;33.90
15359;DHT22;7779;49.596;11.070;2023-06-26T15:23:52;33.20;34.10
15359;DHT22;7779;49.596;11.070;2023-06-26T15:26:18;33.10;34.50
15359;DHT22;7779;49.596;11.070;2023-06-26T15:28:43;33.00;34.90
15359;DHT22;7779;49.596;11.070;2023-06-26T15:31:09;32.90;35.20
15359;DHT22;7779;49.596;11.070;2023-06-26T15:33:35;32.80;35.60
15359;DHT22;7779;49.596;11.070;2023-06-26T15:36:00;32.70;35.90
15359;DHT22;7779;49.596;11.070;2023-06-26T15:38:29;32.60;36.10
15359;DHT22;7779;49.596;11.070;2023-06-26T15:40:55;32.50;36.30
15359;DHT22;7779;49.596;11.070;2023-06-26T15:43:21;32.40;36.70
15359;DHT22;7779;49.596;11.070;2023-06-26T15:45:47;32.30;36.90
15359;DHT22;7779;49.596;11.070;2023-06-26T15:48:13;32.30;37.20